Forside
METAR-TAF:

METAR-TAF

Lufthavne :

Ibaraki, Japan

Breddekreds: 36-11N, længdekreds: 140-25E, højde: 32 m

Aktuelle vejr

Denne rapport blev lavet for 32 minutter siden, kl. 06:42 UTC
Vind 9 kt fra østnordøst
Temperatur 10°C
Fugtighed 66%
Tryk 1016 hPa
Sigt 10 km eller mere
Spredte skyer i en højde af 2000 ft
Spredte skyer i en højde af 4000 ft
Brudte skyer i en højde af 23000 ft

METAR: RJAH 290642Z 07009KT 9999 SCT020 SCT040 BKN230 10/04 Q1016 RMK 3SC020 3SC040 A3001

Tid: 16:14 (07:14 UTC)

Vejrudsigter

Denne rapport blev lavet for 2 timer og 7 minutter siden, kl. 05:07 UTC
Foreløbig gælder fra 29 på 06 UTC til 01 på 12 UTC
Vind 8 kt fra østnordøst
Sigt 10 km eller mere
Nogle få skyer i en højde af 1500 ft
Brudte skyer i en højde af 3000 ft
ændring
fra 01 på 03 UTC til 01 på 06 UTC
Vind 8 kt fra sydøst
ændring
fra 01 på 09 UTC til 01 på 12 UTC
Vind 6 kt fra østnordøst

TAF: RJAH 290507Z 2906/0112 06008KT 9999 FEW015 BKN030 BECMG 0103/0106 13008KT BECMG 0109/0112 06006KT

Vejrobservationer og prognoser fra mere end 4000 lufthavne (METAR og TAF).

De gule og røde prikker repræsenterer de meteorologiske stationer.

Flyt musen over at se navnet på stationen.

Så klik over at se vejr observationer og prognoser.

At skifte det kort: Klik på de grønne knapper med et sort kors for at zoome ind; på den grønne knap med en bindestreg for at zoome ud; eller på de grønne pile for tilstødende kort.


METAR-TAF: